createdAt,value
2023-03-06T00:00:57.864Z,8.87
2023-03-06T00:06:00.369Z,9.33
2023-03-06T00:11:02.159Z,9.67
2023-03-06T00:16:05.013Z,10.40
2023-03-06T00:21:08.559Z,9.93
2023-03-06T00:26:10.638Z,10.60
2023-03-06T00:31:12.305Z,10.30
2023-03-06T00:36:14.096Z,10.80
2023-03-06T00:41:15.756Z,10.60
2023-03-06T00:46:17.567Z,9.93
2023-03-06T00:51:19.816Z,11.50
2023-03-06T00:56:22.512Z,10.10
2023-03-06T01:01:24.208Z,11.10
2023-03-06T01:06:25.874Z,12.43
2023-03-06T01:11:27.680Z,11.83
2023-03-06T01:16:29.330Z,12.00
2023-03-06T01:21:31.097Z,11.07
2023-03-06T01:26:33.614Z,11.50
2023-03-06T01:31:35.370Z,10.53
2023-03-06T01:36:37.077Z,10.00
2023-03-06T01:41:38.779Z,11.93
2023-03-06T01:46:44.147Z,11.73
2023-03-06T01:51:48.949Z,10.67
2023-03-06T01:56:54.899Z,11.37
2023-03-06T02:01:58.612Z,11.60
2023-03-06T02:07:04.920Z,10.77
2023-03-06T02:12:10.976Z,11.50
2023-03-06T02:17:15.295Z,10.93
2023-03-06T02:22:16.985Z,11.40
2023-03-06T02:27:19.552Z,11.07
2023-03-06T02:32:21.300Z,10.90
2023-03-06T02:37:24.747Z,11.73
2023-03-06T02:42:28.917Z,11.10
2023-03-06T02:47:30.817Z,10.47
2023-03-06T02:52:32.508Z,11.60
2023-03-06T02:57:34.184Z,11.93
2023-03-06T03:02:36.072Z,10.53
2023-03-06T03:07:37.646Z,10.87
2023-03-06T03:12:39.571Z,10.23
2023-03-06T03:17:42.301Z,11.00
2023-03-06T03:22:48.349Z,10.03
2023-03-06T03:27:50.084Z,10.47
2023-03-06T03:32:51.794Z,11.43
2023-03-06T03:37:54.782Z,9.77
2023-03-06T03:42:56.418Z,10.20
2023-03-06T03:47:58.063Z,10.87
2023-03-06T03:52:59.905Z,11.80
2023-03-06T03:58:01.585Z,10.70
2023-03-06T04:03:03.308Z,10.97
2023-03-06T04:08:05.637Z,10.20
2023-03-06T04:13:09.919Z,10.10
2023-03-06T04:18:11.844Z,11.47
2023-03-06T04:23:14.263Z,10.63
2023-03-06T04:28:15.993Z,11.60
2023-03-06T04:33:17.823Z,11.57
2023-03-06T04:38:19.493Z,11.23
2023-03-06T04:43:21.280Z,10.50
2023-03-06T04:48:23.012Z,10.43
2023-03-06T04:53:24.701Z,11.27
2023-03-06T04:58:26.548Z,10.70
2023-03-06T05:03:28.167Z,10.73
2023-03-06T05:08:30.234Z,10.27
2023-03-06T05:13:31.865Z,11.23
2023-03-06T05:18:36.034Z,10.77
2023-03-06T05:23:38.679Z,11.23
2023-03-06T05:28:40.721Z,11.57
2023-03-06T05:33:42.388Z,11.60
2023-03-06T05:38:44.040Z,11.23
2023-03-06T05:43:45.803Z,11.03
2023-03-06T05:48:47.802Z,11.47
2023-03-06T05:53:49.590Z,11.87
2023-03-06T05:58:51.683Z,11.17
2023-03-06T06:03:53.419Z,11.63
2023-03-06T06:08:55.150Z,11.83
2023-03-06T06:13:56.865Z,11.80
2023-03-06T06:18:59.077Z,11.27
2023-03-06T06:24:00.727Z,11.20
2023-03-06T06:29:04.395Z,11.67
2023-03-06T06:34:07.291Z,10.70
2023-03-06T06:39:10.869Z,11.20
2023-03-06T06:44:14.612Z,13.03
2023-03-06T06:49:16.869Z,10.80
2023-03-06T06:54:19.982Z,11.43
2023-03-06T06:59:23.811Z,11.40
2023-03-06T07:04:25.620Z,10.27
2023-03-06T07:09:27.386Z,10.40
2023-03-06T07:14:29.008Z,11.77
2023-03-06T07:19:30.711Z,11.97
2023-03-06T07:24:32.453Z,12.57
2023-03-06T07:29:34.712Z,12.20
2023-03-06T07:34:36.385Z,11.47
2023-03-06T07:39:38.074Z,11.13
2023-03-06T07:44:40.273Z,11.23
2023-03-06T07:49:41.970Z,11.17
2023-03-06T07:54:43.693Z,10.90
2023-03-06T07:59:45.299Z,11.07
2023-03-06T08:04:53.026Z,10.63
2023-03-06T08:09:54.732Z,11.33
2023-03-06T08:14:56.361Z,12.33
2023-03-06T08:19:58.133Z,11.90
2023-03-06T08:24:59.817Z,10.73
2023-03-06T08:30:01.591Z,11.17
2023-03-06T08:35:05.050Z,10.03
2023-03-06T08:40:07.425Z,11.33
2023-03-06T08:45:09.726Z,11.47
2023-03-06T08:50:11.974Z,10.67
2023-03-06T08:55:15.125Z,11.07
2023-03-06T09:00:17.620Z,11.67
2023-03-06T09:05:19.398Z,11.23
2023-03-06T09:10:24.531Z,11.20
2023-03-06T09:15:26.500Z,12.13
2023-03-06T09:20:28.171Z,26.30
2023-03-06T09:25:29.823Z,17.00
2023-03-06T09:30:31.576Z,12.30
2023-03-06T09:35:33.320Z,12.23
2023-03-06T09:40:57.813Z,14.87
2023-03-06T09:45:59.684Z,13.00
2023-03-06T09:51:12.591Z,12.47
2023-03-06T09:56:20.959Z,13.90
2023-03-06T10:01:30.322Z,12.70
2023-03-06T10:06:48.589Z,12.20
2023-03-06T10:11:58.847Z,11.27
2023-03-06T10:17:01.898Z,10.80
2023-03-06T10:22:24.467Z,10.17
2023-03-06T10:27:43.088Z,10.63
2023-03-06T10:32:51.380Z,10.40
2023-03-06T10:38:01.012Z,10.80
2023-03-06T10:43:11.339Z,9.67
2023-03-06T10:48:19.783Z,10.50
2023-03-06T10:53:31.358Z,10.33
2023-03-06T10:58:33.156Z,9.87
2023-03-06T11:06:35.183Z,9.40
2023-03-06T11:11:38.143Z,10.07
2023-03-06T11:16:39.822Z,8.57
2023-03-06T11:21:41.416Z,9.23
2023-03-06T11:26:51.668Z,9.33
2023-03-06T11:32:12.093Z,9.67
2023-03-06T11:37:44.351Z,8.83
2023-03-06T11:42:54.027Z,9.00
2023-03-06T11:48:16.610Z,9.53
2023-03-06T11:53:37.798Z,8.20
2023-03-06T11:58:56.277Z,8.37
2023-03-06T12:04:22.617Z,8.47
2023-03-06T12:09:32.516Z,10.07
2023-03-06T12:14:34.025Z,8.63
2023-03-06T12:20:07.321Z,9.03
2023-03-06T12:25:42.519Z,7.30
2023-03-06T12:31:09.208Z,8.50
2023-03-06T12:36:24.283Z,9.07
2023-03-06T12:41:38.002Z,8.40
2023-03-06T12:46:56.433Z,8.37
2023-03-06T12:51:59.882Z,7.97
2023-03-06T12:57:01.777Z,8.33
2023-03-06T13:02:37.247Z,7.77
2023-03-06T13:08:12.970Z,7.03
2023-03-06T13:13:32.498Z,7.40
2023-03-06T13:18:33.999Z,7.57
2023-03-06T13:23:35.754Z,7.53
2023-03-06T13:28:40.575Z,6.53
2023-03-06T13:33:45.197Z,7.70
2023-03-06T13:38:49.697Z,7.63
2023-03-06T13:43:56.750Z,8.67
2023-03-06T13:49:13.181Z,8.03
2023-03-06T13:54:45.976Z,8.00
2023-03-06T14:00:03.057Z,8.33
2023-03-06T14:05:15.745Z,7.97
2023-03-06T14:10:24.652Z,9.03
2023-03-06T14:15:54.511Z,9.37
2023-03-06T14:20:56.398Z,9.27
2023-03-06T14:26:23.440Z,10.30
2023-03-06T14:31:27.290Z,10.33
2023-03-06T14:36:51.025Z,10.30
2023-03-06T14:42:04.356Z,11.37
2023-03-06T14:47:28.902Z,9.73
2023-03-06T14:52:30.705Z,10.93
2023-03-06T14:57:32.370Z,11.60
2023-03-06T15:05:33.476Z,10.33
2023-03-06T15:10:38.773Z,10.40
2023-03-06T15:15:40.315Z,10.40
2023-03-06T15:20:44.768Z,10.10
2023-03-06T15:25:57.720Z,10.80
2023-03-06T15:31:16.329Z,9.37
2023-03-06T15:36:29.560Z,9.37
2023-03-06T15:41:38.533Z,10.30
2023-03-06T15:46:40.561Z,10.30
2023-03-06T15:51:42.257Z,11.20
2023-03-06T15:56:46.199Z,9.70
2023-03-06T16:01:48.435Z,9.57
2023-03-06T16:07:04.906Z,10.80
2023-03-06T18:08:56.263Z,11.27
2023-03-06T18:13:58.122Z,11.40
2023-03-06T18:18:59.765Z,11.23
2023-03-06T18:24:01.499Z,12.03
2023-03-06T18:29:04.965Z,12.47
2023-03-06T18:34:14.593Z,12.20
2023-03-06T18:39:16.555Z,13.83
2023-03-06T18:44:19.044Z,13.17
2023-03-06T18:49:21.146Z,12.50
2023-03-06T18:54:24.466Z,12.50
2023-03-06T18:59:26.450Z,11.03
2023-03-06T19:04:28.293Z,11.90
2023-03-06T19:09:30.042Z,11.83
2023-03-06T19:14:31.924Z,11.63
2023-03-06T19:19:33.579Z,12.53
2023-03-06T19:24:35.250Z,13.27
2023-03-06T19:29:38.613Z,11.20
2023-03-06T19:34:40.321Z,10.83
2023-03-06T19:39:43.182Z,11.70
2023-03-06T19:44:45.200Z,10.43
2023-03-06T19:49:46.991Z,10.43
2023-03-06T19:54:48.825Z,10.30
2023-03-06T19:59:53.991Z,9.80
2023-03-06T20:04:55.777Z,10.63
2023-03-06T20:10:00.734Z,9.87
2023-03-06T20:15:02.751Z,10.17
2023-03-06T20:20:04.649Z,10.20
2023-03-06T20:25:06.573Z,10.80
2023-03-06T20:30:09.097Z,9.60
2023-03-06T20:35:10.839Z,10.47
2023-03-06T20:40:12.972Z,9.83
2023-03-06T20:45:15.620Z,9.30
2023-03-06T20:50:17.421Z,9.53
2023-03-06T20:55:19.121Z,10.63
2023-03-06T21:00:21.347Z,9.97
2023-03-06T21:05:22.972Z,9.60
2023-03-06T21:10:24.605Z,9.77
2023-03-06T21:15:29.984Z,9.90
2023-03-06T21:20:31.778Z,10.20
2023-03-06T21:25:34.081Z,10.40
2023-03-06T21:30:36.056Z,10.33
2023-03-06T21:35:41.681Z,9.80
2023-03-06T21:40:45.531Z,9.60
2023-03-06T21:45:48.587Z,10.20
2023-03-06T21:50:50.280Z,9.57
2023-03-06T21:55:51.901Z,10.93
2023-03-06T22:00:53.662Z,10.17
2023-03-06T22:05:56.605Z,9.23
2023-03-06T22:10:58.273Z,9.80
2023-03-06T22:15:59.983Z,10.10
2023-03-06T22:21:07.150Z,7.60
2023-03-06T22:26:12.719Z,9.57
2023-03-06T22:31:17.250Z,9.83
2023-03-06T22:36:21.007Z,9.77
2023-03-06T22:41:23.469Z,11.03
2023-03-06T22:46:26.201Z,10.23
2023-03-06T22:51:28.889Z,9.20
2023-03-06T22:56:31.319Z,10.00
2023-03-06T23:01:34.682Z,11.07
2023-03-06T23:06:39.641Z,9.47
2023-03-06T23:11:41.934Z,10.73
2023-03-06T23:16:44.787Z,10.70
2023-03-06T23:21:46.388Z,10.47
2023-03-06T23:26:47.987Z,10.30
2023-03-06T23:31:49.652Z,9.47
2023-03-06T23:36:51.274Z,9.60
2023-03-06T23:41:52.926Z,10.20
2023-03-06T23:46:54.761Z,10.07
2023-03-06T23:51:56.390Z,8.90
2023-03-06T23:56:58.146Z,10.53
